Time;durP1;ratioP1;P1;durP2;ratioP2;P2;SDS_P1;SDS_P2;PMS_P1;PMS_P2;Temp;Humidity;BMP_temperature;BMP_pressure;BME280_temperature;BME280_humidity;BME280_pressure;Samples;Min_cycle;Max_cycle;Signal;HPM_P1;HPM_P2
2023/12/31 00:01:00;;;;;;;4.50;1.40;;;;;;;10.14;99.72;99653.16;8313433;28;20510;-56
2023/12/31 00:05:00;;;;;;;1.75;1.20;;;;;;;10.20;100.00;99636.31;8292619;28;20037;-55
2023/12/31 00:09:01;;;;;;;2.45;1.73;;;;;;;10.24;99.00;99625.03;8298311;28;20472;-55
2023/12/31 00:13:01;;;;;;;4.25;2.10;;;;;;;10.13;99.77;99614.50;8306217;28;20515;-56
2023/12/31 00:17:02;;;;;;;4.93;1.60;;;;;;;10.05;100.00;99600.91;8305998;28;20041;-56
2023/12/31 00:21:02;;;;;;;2.75;1.65;;;;;;;10.10;99.79;99601.34;8291148;28;20111;-55
2023/12/31 00:25:03;;;;;;;6.65;1.80;;;;;;;10.08;99.52;99600.63;8299612;28;20140;-56
2023/12/31 00:29:04;;;;;;;2.83;1.65;;;;;;;10.01;99.67;99599.56;8300191;28;20041;-56
2023/12/31 00:33:04;;;;;;;4.25;2.00;;;;;;;9.91;99.55;99596.09;8299812;28;20069;-56
2023/12/31 00:37:04;;;;;;;3.72;2.00;;;;;;;9.87;99.72;99597.41;8300112;28;20044;-55
2023/12/31 00:41:05;;;;;;;3.03;1.83;;;;;;;9.82;98.94;99572.75;8299447;28;20052;-55
2023/12/31 00:45:06;;;;;;;3.67;1.88;;;;;;;9.84;98.23;99570.75;8301244;28;20123;-54
2023/12/31 00:49:06;;;;;;;2.65;1.58;;;;;;;9.93;97.08;99564.38;8301539;28;20107;-55
2023/12/31 00:53:07;;;;;;;2.03;1.33;;;;;;;10.21;93.57;99555.13;8299141;28;20042;-55
2023/12/31 00:57:09;;;;;;;3.67;1.30;;;;;;;10.77;89.50;99560.72;8300305;28;20450;-55
2023/12/31 01:01:09;;;;;;;2.33;1.13;;;;;;;10.90;87.44;99549.44;8275336;28;20255;-56
2023/12/31 01:05:09;;;;;;;3.95;1.55;;;;;;;10.96;86.41;99549.63;8246547;28;20540;-55
2023/12/31 01:09:10;;;;;;;1.58;1.00;;;;;;;11.02;85.62;99532.75;8252033;28;20394;-55
2023/12/31 01:13:11;;;;;;;2.00;1.20;;;;;;;11.15;82.66;99527.66;8246069;28;20425;-55
2023/12/31 01:17:11;;;;;;;1.08;0.80;;;;;;;11.20;81.77;99519.88;8233505;28;20282;-57
2023/12/31 01:21:12;;;;;;;2.25;0.90;;;;;;;11.22;80.75;99515.16;8202135;28;20038;-57
2023/12/31 01:25:12;;;;;;;1.95;0.70;;;;;;;11.14;80.78;99512.47;8210062;28;20375;-56
2023/12/31 01:29:13;;;;;;;1.25;0.60;;;;;;;11.29;79.94;99499.91;8223661;28;20407;-57
2023/12/31 01:33:13;;;;;;;1.17;0.90;;;;;;;11.16;80.69;99496.88;8247960;28;20034;-56
2023/12/31 01:37:14;;;;;;;1.95;0.77;;;;;;;11.30;80.92;99477.28;8247548;28;20373;-56
2023/12/31 01:41:14;;;;;;;3.85;1.30;;;;;;;11.32;80.90;99479.81;8256421;28;20068;-55
2023/12/31 01:45:15;;;;;;;2.35;0.77;;;;;;;11.21;81.32;99467.47;8254689;28;20046;-56
2023/12/31 01:49:15;;;;;;;3.03;1.33;;;;;;;11.16;82.49;99480.66;8228287;28;20136;-57
2023/12/31 01:53:19;;;;;;;2.60;1.30;;;;;;;10.86;83.50;99475.09;8241818;28;20120;-55
2023/12/31 01:57:25;;;;;;;3.38;1.30;;;;;;;10.40;86.15;99465.69;8245958;28;20277;-55
2023/12/31 02:01:27;;;;;;;2.65;1.10;;;;;;;10.09;88.66;99461.91;8249686;28;20757;-55
2023/12/31 02:05:27;;;;;;;2.17;1.38;;;;;;;10.14;90.08;99456.00;8246842;28;20064;-56
2023/12/31 02:09:29;;;;;;;3.22;1.40;;;;;;;9.98;91.33;99448.69;8247156;28;20051;-57
2023/12/31 02:13:29;;;;;;;3.60;1.52;;;;;;;9.88;92.76;99431.75;8299674;28;20500;-56
2023/12/31 02:17:30;;;;;;;4.93;1.40;;;;;;;9.97;93.20;99428.06;8301654;28;20479;-58
2023/12/31 02:21:30;;;;;;;3.50;1.80;;;;;;;10.04;93.43;99426.44;8298820;28;20034;-55
2023/12/31 02:25:36;;;;;;;2.25;1.60;;;;;;;10.09;93.13;99407.06;8300111;28;20045;-57
2023/12/31 02:29:37;;;;;;;4.88;1.90;;;;;;;10.26;92.50;99409.63;8275133;28;20125;-56
2023/12/31 02:33:38;;;;;;;4.78;1.60;;;;;;;10.45;91.33;99393.13;8250013;28;20041;-56
2023/12/31 02:37:38;;;;;;;2.35;1.60;;;;;;;10.52;91.09;99393.28;8247483;28;20297;-56
2023/12/31 02:41:38;;;;;;;2.40;1.63;;;;;;;10.34;91.66;99379.09;8246707;28;20045;-55
2023/12/31 02:45:40;;;;;;;4.50;1.70;;;;;;;10.08;93.50;99357.59;8250456;28;20265;-56
2023/12/31 02:49:41;;;;;;;2.95;1.90;;;;;;;10.00;95.15;99353.00;8246204;28;20582;-55
2023/12/31 02:53:41;;;;;;;2.50;1.90;;;;;;;10.01;95.21;99334.97;8244580;28;20584;-55
2023/12/31 02:57:42;;;;;;;4.20;2.30;;;;;;;9.94;96.07;99328.50;8269271;28;20034;-57
2023/12/31 03:01:42;;;;;;;2.95;1.75;;;;;;;9.96;96.53;99310.28;8299235;28;20034;-57
2023/12/31 03:05:44;;;;;;;5.72;2.63;;;;;;;9.96;97.19;99300.34;8301573;28;20806;-54
2023/12/31 03:09:44;;;;;;;3.78;2.03;;;;;;;9.96;97.23;99305.75;8307059;28;20041;-56
2023/12/31 03:13:45;;;;;;;4.18;2.72;;;;;;;9.94;98.06;99305.06;8305135;28;20045;-56
2023/12/31 03:17:45;;;;;;;4.30;2.63;;;;;;;9.91;98.21;99301.84;8302236;28;20030;-56
2023/12/31 03:21:45;;;;;;;6.28;3.38;;;;;;;10.15;97.36;99293.81;8228978;28;20501;-55
2023/12/31 03:25:46;;;;;;;4.80;3.00;;;;;;;10.13;96.74;99279.66;8220672;28;20061;-54
2023/12/31 03:29:47;;;;;;;4.07;2.95;;;;;;;10.20;96.21;99280.66;8220296;28;20117;-56
2023/12/31 03:33:47;;;;;;;4.78;2.90;;;;;;;10.17;96.56;99258.53;8219880;28;20042;-55
2023/12/31 03:37:49;;;;;;;4.00;2.90;;;;;;;10.14;96.31;99258.88;8219818;28;20382;-56
2023/12/31 03:41:49;;;;;;;4.47;2.20;;;;;;;9.99;97.02;99256.81;8217358;28;20042;-56
2023/12/31 03:45:50;;;;;;;5.30;2.72;;;;;;;9.92;98.13;99250.38;8223476;28;20057;-54
2023/12/31 03:49:50;;;;;;;2.92;2.15;;;;;;;9.90;98.32;99241.63;8273840;28;20038;-56
2023/12/31 03:53:51;;;;;;;5.38;3.05;;;;;;;9.94;97.82;99225.94;8273060;28;20053;-56
2023/12/31 03:57:51;;;;;;;3.10;2.50;;;;;;;9.94;98.04;99223.22;8302954;28;20117;-56
2023/12/31 04:01:56;;;;;;;2.92;2.40;;;;;;;9.99;97.45;99221.72;8306735;28;20128;-56
2023/12/31 04:05:57;;;;;;;5.78;2.75;;;;;;;9.93;97.51;99202.66;8262775;28;20443;-56
2023/12/31 04:09:57;;;;;;;4.03;2.38;;;;;;;9.88;98.09;99194.19;8251578;28;20095;-56
2023/12/31 04:13:58;;;;;;;8.07;2.70;;;;;;;9.85;98.02;99189.16;8248422;28;20606;-56
2023/12/31 04:17:59;;;;;;;5.57;2.83;;;;;;;9.81;98.27;99179.72;8248557;28;20042;-56
2023/12/31 04:22:00;;;;;;;4.35;3.47;;;;;;;9.92;97.66;99168.59;8245811;28;20159;-56
2023/12/31 04:26:01;;;;;;;4.68;3.03;;;;;;;10.01;96.79;99170.28;8249633;28;20138;-55
2023/12/31 04:30:02;;;;;;;3.65;2.42;;;;;;;10.00;96.58;99165.84;8246943;28;20534;-56
2023/12/31 04:34:02;;;;;;;3.10;2.65;;;;;;;9.93;96.70;99154.06;8276770;28;20033;-54
2023/12/31 04:38:03;;;;;;;4.75;2.80;;;;;;;9.87;96.78;99146.66;8306064;28;20068;-54
2023/12/31 04:42:03;;;;;;;4.10;2.70;;;;;;;9.77;97.78;99149.53;8321118;28;20530;-54
2023/12/31 04:46:05;;;;;;;6.15;2.65;;;;;;;9.71;98.49;99146.66;8307216;28;20041;-56
2023/12/31 04:50:06;;;;;;;4.95;2.80;;;;;;;9.57;99.57;99131.13;8284700;28;20037;-55
2023/12/31 04:54:07;;;;;;;7.10;3.25;;;;;;;9.62;99.43;99128.78;8248630;28;20030;-55
2023/12/31 04:58:08;;;;;;;3.55;2.42;;;;;;;9.67;98.75;99115.63;8250187;28;20042;-56
2023/12/31 05:02:08;;;;;;;3.63;2.50;;;;;;;9.73;98.19;99109.56;8250705;28;20104;-57
2023/12/31 05:06:10;;;;;;;4.75;2.75;;;;;;;9.68;98.44;99095.72;8251508;28;20460;-58
2023/12/31 05:10:11;;;;;;;4.05;2.50;;;;;;;9.67;97.86;99085.94;8249684;28;20187;-56
2023/12/31 05:14:12;;;;;;;4.38;2.65;;;;;;;9.69;98.51;99081.22;8246995;28;20119;-57
2023/12/31 05:18:12;;;;;;;4.50;3.13;;;;;;;9.64;98.56;99080.91;8266686;28;20575;-54
2023/12/31 05:22:15;;;;;;;3.53;2.47;;;;;;;9.58;99.19;99070.78;8300401;28;20049;-53
2023/12/31 05:26:15;;;;;;;3.85;2.58;;;;;;;9.63;99.25;99060.31;8300643;28;20616;-55
2023/12/31 05:30:16;;;;;;;4.38;3.22;;;;;;;9.61;99.21;99048.84;8308785;28;20463;-56
2023/12/31 05:34:17;;;;;;;4.60;3.15;;;;;;;9.57;99.06;99034.00;8300745;28;20491;-56
2023/12/31 05:38:19;;;;;;;5.40;2.80;;;;;;;9.63;98.79;99033.31;8272365;28;20034;-54
2023/12/31 05:42:19;;;;;;;6.93;2.95;;;;;;;9.64;98.25;99030.47;8248634;28;20563;-54
2023/12/31 05:46:20;;;;;;;6.25;3.00;;;;;;;9.59;98.96;99021.19;8249526;28;20461;-53
2023/12/31 05:50:21;;;;;;;5.65;3.10;;;;;;;9.80;97.44;99018.81;8249121;28;20263;-53
2023/12/31 05:54:21;;;;;;;6.03;3.15;;;;;;;10.13;94.69;99019.56;8247260;28;20331;-54
2023/12/31 05:58:22;;;;;;;6.60;3.17;;;;;;;10.36;92.61;99024.03;8247816;28;20661;-53
2023/12/31 06:02:22;;;;;;;4.93;3.15;;;;;;;10.54;91.22;99015.66;8248238;28;20320;-54
2023/12/31 06:06:23;;;;;;;3.88;2.60;;;;;;;10.70;90.00;99013.72;8279206;28;20042;-55
2023/12/31 06:10:24;;;;;;;3.45;2.65;;;;;;;10.82;89.25;99017.69;8301691;28;20095;-55
2023/12/31 06:14:24;;;;;;;3.67;2.58;;;;;;;10.79;88.79;99004.53;8298761;28;20432;-54
2023/12/31 06:18:24;;;;;;;4.03;3.13;;;;;;;10.86;88.71;98996.56;8287446;28;20041;-53
2023/12/31 06:22:25;;;;;;;5.47;2.80;;;;;;;10.81;88.87;98972.78;8246389;28;20050;-54
2023/12/31 06:26:25;;;;;;;4.72;2.60;;;;;;;10.82;88.78;98974.44;8250582;28;20053;-53
2023/12/31 06:30:26;;;;;;;5.50;2.25;;;;;;;10.79;88.59;98957.75;8245885;28;20046;-53
2023/12/31 06:34:28;;;;;;;3.25;2.28;;;;;;;10.67;89.25;98981.66;8246260;28;20092;-54
2023/12/31 06:38:28;;;;;;;4.25;2.85;;;;;;;10.75;89.11;98957.28;8284943;28;20062;-54
2023/12/31 06:42:29;;;;;;;3.60;2.45;;;;;;;10.80;88.83;98971.06;8271964;28;20624;-55
2023/12/31 06:46:29;;;;;;;3.30;2.85;;;;;;;10.74;89.12;98985.31;8253034;28;20236;-55
2023/12/31 06:50:30;;;;;;;4.47;2.65;;;;;;;10.85;88.88;98984.91;8251424;28;20045;-54
2023/12/31 06:54:30;;;;;;;4.22;2.58;;;;;;;10.76;89.79;98979.72;8252754;28;20068;-55
2023/12/31 06:58:31;;;;;;;5.88;3.22;;;;;;;10.82;89.60;98962.78;8250970;28;20030;-56
2023/12/31 07:02:31;;;;;;;3.85;2.60;;;;;;;10.93;88.92;98971.34;8253279;28;20367;-57
2023/12/31 07:06:32;;;;;;;3.97;2.60;;;;;;;11.06;87.98;98974.28;8229140;28;20326;-56
2023/12/31 07:10:32;;;;;;;2.85;2.40;;;;;;;11.02;88.14;98954.03;8238190;28;20132;-57
2023/12/31 07:14:33;;;;;;;6.03;2.92;;;;;;;10.87;88.70;98953.13;8251556;28;20170;-57
2023/12/31 07:18:33;;;;;;;4.65;3.42;;;;;;;10.74;89.92;98933.13;8249049;28;20077;-55
2023/12/31 07:22:34;;;;;;;4.43;2.10;;;;;;;10.65;90.16;98926.94;8256293;28;20164;-57
2023/12/31 07:26:34;;;;;;;5.13;2.70;;;;;;;10.75;89.44;98934.81;8254715;28;20560;-57
2023/12/31 07:30:34;;;;;;;3.80;2.50;;;;;;;10.71;89.98;98922.69;8247910;28;20140;-56
2023/12/31 07:34:35;;;;;;;4.43;2.55;;;;;;;10.84;88.79;98907.53;8286794;28;20044;-56
2023/12/31 07:38:35;;;;;;;4.32;2.40;;;;;;;10.78;89.08;98886.63;8310373;28;20090;-56
2023/12/31 07:42:37;;;;;;;3.58;2.63;;;;;;;10.87;88.29;98861.22;8308489;28;20038;-56
2023/12/31 07:46:37;;;;;;;2.90;1.90;;;;;;;10.96;88.07;98868.25;8306629;28;20429;-55
2023/12/31 07:50:38;;;;;;;2.60;2.15;;;;;;;11.03;87.84;98876.44;8310448;28;20120;-53
2023/12/31 07:54:38;;;;;;;4.25;3.15;;;;;;;11.03;87.65;98868.31;8325754;28;20066;-55
2023/12/31 07:58:39;;;;;;;3.70;2.33;;;;;;;11.10;87.29;98861.19;8310697;28;20042;-55
2023/12/31 08:02:39;;;;;;;4.03;2.60;;;;;;;11.05;87.39;98863.59;8311716;28;20569;-56
2023/12/31 08:06:40;;;;;;;6.78;2.63;;;;;;;11.08;87.28;98877.59;8307553;28;20128;-56
2023/12/31 08:10:40;;;;;;;3.53;2.35;;;;;;;11.03;87.37;98868.31;8305693;28;20046;-56
2023/12/31 08:14:41;;;;;;;4.03;2.60;;;;;;;11.21;86.51;98872.38;8299028;28;20092;-56
2023/12/31 08:18:41;;;;;;;3.10;2.17;;;;;;;11.22;86.53;98863.22;8311947;28;20450;-55
2023/12/31 08:22:42;;;;;;;3.35;2.05;;;;;;;11.39;85.31;98862.03;8314664;28;20057;-56
2023/12/31 08:26:42;;;;;;;2.92;1.92;;;;;;;11.41;85.49;98862.69;8313786;28;20042;-56
2023/12/31 08:30:43;;;;;;;3.80;2.25;;;;;;;11.42;85.88;98864.38;8314014;28;20041;-55
2023/12/31 08:34:45;;;;;;;4.28;2.10;;;;;;;11.24;86.44;98888.25;8306014;28;20634;-55
2023/12/31 08:38:45;;;;;;;2.15;1.65;;;;;;;11.26;86.03;98869.94;8306935;28;20422;-56
2023/12/31 08:42:46;;;;;;;2.78;1.83;;;;;;;11.20;86.21;98870.66;8306642;28;20044;-55
2023/12/31 08:46:46;;;;;;;4.60;2.50;;;;;;;11.14;86.74;98884.97;8300912;28;20120;-55
2023/12/31 08:50:47;;;;;;;5.05;2.45;;;;;;;11.27;86.15;98868.94;8300731;28;20134;-54
2023/12/31 08:54:47;;;;;;;4.07;2.28;;;;;;;11.15;86.91;98873.13;8304801;28;20045;-57
2023/12/31 08:58:48;;;;;;;2.95;1.85;;;;;;;11.23;86.46;98847.84;8300453;28;20046;-57
2023/12/31 09:02:48;;;;;;;2.30;1.90;;;;;;;11.35;86.16;98847.19;8301144;28;20042;-57
2023/12/31 09:06:49;;;;;;;2.53;1.90;;;;;;;11.33;86.09;98854.66;8318783;28;20049;-56
2023/12/31 09:10:49;;;;;;;2.70;1.60;;;;;;;11.29;86.96;98858.75;8309890;28;20400;-55
2023/12/31 09:14:50;;;;;;;2.53;1.80;;;;;;;11.42;86.98;98853.56;8314342;28;20049;-57
2023/12/31 09:18:52;;;;;;;4.15;2.80;;;;;;;11.70;86.71;98846.47;8317676;28;20042;-57
2023/12/31 09:22:53;;;;;;;4.20;3.03;;;;;;;12.12;84.68;98850.31;8311764;28;20049;-58
2023/12/31 09:26:53;;;;;;;5.05;2.22;;;;;;;12.81;81.17;98833.28;8308694;28;20049;-57
2023/12/31 09:30:54;;;;;;;3.03;2.20;;;;;;;13.75;77.01;98830.78;8294439;28;20482;-56
2023/12/31 09:34:54;;;;;;;5.93;2.38;;;;;;;14.03;74.81;98845.13;8295788;28;20065;-56
2023/12/31 09:38:55;;;;;;;4.47;2.42;;;;;;;13.47;76.11;98854.47;8302711;28;20280;-55
2023/12/31 09:42:55;;;;;;;2.60;1.90;;;;;;;13.24;76.80;98848.47;8304966;28;20072;-57
2023/12/31 09:47:11;;;;;;;2.65;1.83;;;;;;;13.31;76.63;98850.19;8310510;28;20037;-55
2023/12/31 09:51:12;;;;;;;2.20;1.50;;;;;;;13.39;76.11;98868.22;8306795;28;20049;-56
2023/12/31 09:55:15;;;;;;;1.65;1.45;;;;;;;13.41;75.26;98860.69;8299013;28;20042;-57
2023/12/31 09:59:15;;;;;;;1.30;0.90;;;;;;;13.21;75.92;98870.59;8303606;28;20058;-57
2023/12/31 10:03:18;;;;;;;3.03;0.77;;;;;;;13.02;74.56;98888.38;8294283;28;20049;-55
2023/12/31 10:07:20;;;;;;;0.85;0.70;;;;;;;12.66;74.99;98884.03;8295691;28;20152;-55
2023/12/31 10:11:20;;;;;;;1.23;0.32;;;;;;;12.40;74.48;98897.31;8300111;28;20057;-55
2023/12/31 10:15:21;;;;;;;2.25;0.47;;;;;;;12.26;75.44;98900.91;8301314;28;20042;-56
2023/12/31 10:19:21;;;;;;;1.50;0.40;;;;;;;12.24;75.24;98892.13;8299823;28;20415;-56
2023/12/31 10:23:24;;;;;;;0.70;0.30;;;;;;;12.26;74.94;98895.50;8299683;28;20064;-57
2023/12/31 10:27:26;;;;;;;1.25;0.35;;;;;;;12.17;75.16;98888.50;8294857;28;20042;-56
2023/12/31 10:31:28;;;;;;;2.50;0.30;;;;;;;12.09;76.28;98896.72;8298204;28;20072;-55
2023/12/31 10:35:28;;;;;;;21.45;9.90;;;;;;;12.13;75.87;98892.63;8297843;28;20041;-57
2023/12/31 10:39:31;;;;;;;362.40;102.60;;;;;;;12.01;76.91;98880.59;8303768;28;20506;-56
2023/12/31 10:43:32;;;;;;;95.20;34.30;;;;;;;11.90;77.46;98868.38;8297116;28;20045;-55
2023/12/31 10:47:33;;;;;;;8.75;2.75;;;;;;;11.90;78.16;98866.50;8286921;28;20081;-55
2023/12/31 10:51:36;;;;;;;1.73;0.30;;;;;;;11.90;77.21;98869.22;8271049;28;20038;-55
2023/12/31 10:55:37;;;;;;;2.88;0.60;;;;;;;11.87;77.80;98869.59;8300680;28;20088;-56
2023/12/31 10:59:41;;;;;;;2.13;0.20;;;;;;;11.85;78.11;98876.22;8265367;28;20121;-53
2023/12/31 11:03:42;;;;;;;1.90;0.20;;;;;;;11.88;78.53;98868.56;8270180;28;20047;-54
2023/12/31 11:07:46;;;;;;;0.30;0.20;;;;;;;11.82;78.67;98876.59;8267024;28;20073;-54
2023/12/31 11:11:48;;;;;;;2.67;0.20;;;;;;;11.80;79.08;98873.22;8269811;28;20117;-54
2023/12/31 11:15:51;;;;;;;0.52;0.47;;;;;;;11.82;79.49;98871.19;8269099;28;20092;-54
2023/12/31 11:24:23;;;;;;;1.00;0.57;;;;;;;11.84;79.23;98852.91;8399281;27;20386;-55
2023/12/31 11:28:27;;;;;;;1.75;0.68;;;;;;;11.82;79.81;98853.09;8378737;28;20502;-56
2023/12/31 11:32:27;;;;;;;1.33;0.20;;;;;;;11.85;79.93;98843.72;8352986;28;20132;-55
2023/12/31 11:36:29;;;;;;;0.80;0.28;;;;;;;11.77;80.56;98857.38;8372585;28;20040;-55
2023/12/31 11:40:30;;;;;;;1.25;0.47;;;;;;;11.83;80.18;98856.63;8370924;28;20047;-56
2023/12/31 11:44:37;;;;;;;0.68;0.40;;;;;;;11.75;81.03;98860.25;8370025;28;20084;-56
2023/12/31 11:48:38;;;;;;;0.70;0.22;;;;;;;11.73;80.46;98854.22;8361805;28;20040;-55
2023/12/31 11:52:41;;;;;;;0.30;0.30;;;;;;;11.77;80.33;98863.63;8372439;28;20123;-57
2023/12/31 11:56:45;;;;;;;1.15;0.30;;;;;;;11.76;79.65;98845.72;8364599;28;20087;-56
2023/12/31 12:00:45;;;;;;;0.30;0.20;;;;;;;11.80;79.67;98852.44;8373836;28;20047;-56
2023/12/31 12:04:46;;;;;;;0.43;0.20;;;;;;;11.81;79.44;98848.69;8384190;28;20568;-55
2023/12/31 12:08:46;;;;;;;1.00;0.20;;;;;;;11.78;79.27;98857.19;8359397;28;20580;-55
2023/12/31 12:12:47;;;;;;;0.47;0.30;;;;;;;11.77;78.51;98863.63;8361544;28;20486;-55
2023/12/31 12:16:47;;;;;;;0.28;0.20;;;;;;;11.81;77.62;98859.50;8363950;28;20095;-56
2023/12/31 12:20:48;;;;;;;1.10;0.35;;;;;;;11.89;76.64;98848.59;8364168;28;20082;-55
2023/12/31 12:24:48;;;;;;;1.23;0.20;;;;;;;12.04;74.47;98837.72;8363244;28;20335;-56
2023/12/31 12:28:50;;;;;;;2.75;0.68;;;;;;;12.32;73.29;98845.97;8357934;28;20041;-57
2023/12/31 12:32:51;;;;;;;3.13;0.50;;;;;;;12.40;72.48;98843.09;8355026;28;20053;-57
2023/12/31 12:36:53;;;;;;;4.28;0.40;;;;;;;12.57;73.04;98839.97;8341778;28;20183;-56
2023/12/31 12:41:02;;;;;;;2.92;0.65;;;;;;;12.58;71.37;98847.06;8332062;28;20081;-56
2023/12/31 12:45:03;;;;;;;2.25;0.40;;;;;;;12.57;71.26;98858.09;8341497;28;20121;-56
2023/12/31 12:49:05;;;;;;;3.75;0.57;;;;;;;12.55;69.73;98854.72;8335858;28;20042;-57
2023/12/31 12:53:05;;;;;;;4.63;0.57;;;;;;;12.58;69.89;98867.88;8343858;28;20464;-56
2023/12/31 12:57:06;;;;;;;6.55;1.05;;;;;;;12.50;68.88;98870.75;8321826;28;20483;-55
2023/12/31 13:01:07;;;;;;;2.15;0.40;;;;;;;12.43;67.50;98872.53;8323341;28;20495;-55
2023/12/31 13:05:07;;;;;;;5.60;0.80;;;;;;;12.38;67.87;98870.41;8322004;28;20049;-55
2023/12/31 13:09:08;;;;;;;6.80;0.82;;;;;;;12.66;66.67;98871.31;8345503;28;20067;-54
2023/12/31 13:13:08;;;;;;;16.83;10.23;;;;;;;13.00;65.73;98859.75;8338025;28;20236;-55
2023/12/31 13:17:09;;;;;;;7.82;2.08;;;;;;;13.00;64.89;98867.91;8329912;28;20037;-56
2023/12/31 13:21:09;;;;;;;8.95;1.02;;;;;;;12.97;64.51;98866.41;8340300;28;20091;-56
2023/12/31 13:25:10;;;;;;;6.43;0.98;;;;;;;13.01;64.17;98880.41;8335591;28;20060;-55
2023/12/31 13:29:10;;;;;;;4.82;0.80;;;;;;;13.08;64.66;98878.59;8340874;28;20048;-55
2023/12/31 13:33:12;;;;;;;7.40;0.90;;;;;;;13.03;64.34;98879.22;8317520;28;20095;-54
2023/12/31 13:37:13;;;;;;;3.28;0.70;;;;;;;13.10;64.08;98879.25;8325508;28;20045;-54
2023/12/31 13:41:14;;;;;;;4.25;0.82;;;;;;;12.81;63.53;98879.41;8334958;28;20046;-53
2023/12/31 13:45:14;;;;;;;6.70;1.10;;;;;;;12.52;64.04;98874.94;8331788;28;20069;-55
2023/12/31 13:49:15;;;;;;;4.65;1.10;;;;;;;12.53;64.58;98898.28;8333672;28;20094;-54
2023/12/31 13:53:16;;;;;;;6.32;1.10;;;;;;;12.54;64.10;98897.28;8328679;28;20045;-54
2023/12/31 13:57:16;;;;;;;8.80;1.25;;;;;;;12.57;64.17;98882.50;8331639;28;20045;-56
2023/12/31 14:01:17;;;;;;;8.93;1.00;;;;;;;12.44;65.33;98893.19;8328012;28;20096;-55
2023/12/31 14:05:18;;;;;;;6.85;0.90;;;;;;;12.31;66.06;98868.63;8332201;28;20384;-56
2023/12/31 14:09:19;;;;;;;9.88;1.08;;;;;;;12.07;66.82;98879.84;8328351;28;20036;-56
2023/12/31 14:13:20;;;;;;;6.63;1.15;;;;;;;11.89;66.49;98867.53;8320004;28;20049;-56
2023/12/31 14:17:21;;;;;;;4.97;1.08;;;;;;;11.81;66.70;98891.19;8316705;28;20415;-54
2023/12/31 14:21:21;;;;;;;8.82;1.02;;;;;;;11.73;66.70;98900.22;8328795;28;20103;-55
2023/12/31 14:25:22;;;;;;;6.32;1.05;;;;;;;11.71;66.70;98888.75;8327040;28;20506;-55
2023/12/31 14:29:22;;;;;;;6.78;1.10;;;;;;;11.74;67.61;98901.91;8328319;28;20040;-57
2023/12/31 14:33:23;;;;;;;9.25;0.95;;;;;;;11.81;68.02;98897.41;8325905;28;20033;-55
2023/12/31 14:37:23;;;;;;;8.85;1.42;;;;;;;11.89;68.10;98900.03;8328182;28;20048;-55
2023/12/31 14:41:24;;;;;;;5.03;1.20;;;;;;;11.85;68.49;98901.44;8328133;28;20049;-55
2023/12/31 14:45:25;;;;;;;7.50;1.20;;;;;;;11.80;69.22;98901.16;8333113;28;20491;-56
2023/12/31 14:49:25;;;;;;;10.32;1.20;;;;;;;11.68;70.03;98907.22;8329271;28;20508;-56
2023/12/31 14:53:26;;;;;;;10.57;1.60;;;;;;;11.62;69.38;98918.81;8329151;28;20246;-55
2023/12/31 14:57:26;;;;;;;9.15;1.50;;;;;;;11.55;70.10;98921.38;8314885;28;20041;-55
2023/12/31 15:01:28;;;;;;;8.63;1.25;;;;;;;11.46;69.75;98919.78;8321173;28;20041;-56
2023/12/31 15:05:30;;;;;;;16.00;1.65;;;;;;;11.40;70.70;98920.53;8327053;28;20041;-57
2023/12/31 15:09:30;;;;;;;13.80;1.58;;;;;;;11.44;70.30;98921.81;8345428;28;20036;-58
2023/12/31 15:13:32;;;;;;;9.85;1.05;;;;;;;11.39;70.25;98915.31;8322641;28;20048;-57
2023/12/31 15:17:32;;;;;;;9.15;1.67;;;;;;;11.44;69.91;98894.78;8312815;28;20510;-57
2023/12/31 15:21:32;;;;;;;11.07;1.60;;;;;;;11.40;70.73;98907.00;8312732;28;20042;-55
2023/12/31 15:25:33;;;;;;;12.63;1.55;;;;;;;11.37;71.13;98909.22;8313754;28;20175;-56
2023/12/31 15:29:33;;;;;;;12.77;1.60;;;;;;;11.42;70.27;98909.53;8314287;28;20373;-58
2023/12/31 15:33:35;;;;;;;12.88;2.05;;;;;;;11.46;70.03;98906.25;8312993;28;20501;-56
2023/12/31 15:37:35;;;;;;;18.85;1.88;;;;;;;11.47;70.48;98921.47;8312967;28;20229;-56
2023/12/31 15:41:36;;;;;;;17.60;1.60;;;;;;;11.38;70.61;98906.34;8313179;28;20329;-57
2023/12/31 15:45:37;;;;;;;21.65;2.17;;;;;;;11.30;71.05;98898.31;8313893;28;20044;-56
2023/12/31 15:49:37;;;;;;;15.00;1.92;;;;;;;11.18;71.40;98899.78;8281482;28;20091;-56
2023/12/31 15:53:38;;;;;;;6.32;0.85;;;;;;;11.04;71.80;98902.47;8299109;28;20038;-55
2023/12/31 15:57:38;;;;;;;11.95;1.98;;;;;;;11.00;71.77;98904.69;8329329;28;20090;-56
2023/12/31 16:01:39;;;;;;;22.15;1.92;;;;;;;10.96;72.85;98929.56;8306312;28;20115;-55
2023/12/31 16:05:39;;;;;;;11.95;1.73;;;;;;;10.90;72.72;98925.75;8324985;28;20454;-56
2023/12/31 16:09:40;;;;;;;17.13;3.28;;;;;;;10.93;72.81;98911.84;8322499;28;20042;-56
2023/12/31 16:13:40;;;;;;;15.13;2.20;;;;;;;11.15;71.53;98916.38;8340360;28;20042;-55
2023/12/31 16:17:41;;;;;;;15.70;1.85;;;;;;;11.10;71.50;98921.50;8337081;28;20511;-55
2023/12/31 16:21:43;;;;;;;18.70;3.25;;;;;;;11.10;72.17;98913.38;8339215;28;20045;-55
2023/12/31 16:25:43;;;;;;;8.02;1.80;;;;;;;10.99;72.73;98911.13;8339445;28;20037;-56
2023/12/31 16:29:44;;;;;;;19.48;2.10;;;;;;;10.89;73.39;98910.53;8336761;28;20068;-55
2023/12/31 16:33:44;;;;;;;8.98;1.10;;;;;;;10.88;73.17;98929.63;8338806;28;20411;-56
2023/12/31 16:37:44;;;;;;;8.02;1.30;;;;;;;10.91;73.87;98923.84;8341114;28;20494;-56
2023/12/31 16:41:45;;;;;;;11.75;1.27;;;;;;;11.15;72.35;98924.50;8338392;28;20056;-55
2023/12/31 16:45:45;;;;;;;9.85;2.00;;;;;;;11.15;72.35;98921.78;8349178;28;20057;-56
2023/12/31 16:49:46;;;;;;;13.15;4.00;;;;;;;11.24;71.98;98909.88;8345283;28;20037;-56
2023/12/31 16:53:47;;;;;;;10.50;2.20;;;;;;;11.25;72.22;98913.41;8338498;28;20099;-56
2023/12/31 16:57:47;;;;;;;14.07;2.00;;;;;;;11.23;72.96;98910.06;8327956;28;20072;-56
2023/12/31 17:01:48;;;;;;;16.90;3.33;;;;;;;11.02;74.41;98918.88;8325852;28;20045;-56
2023/12/31 17:05:51;;;;;;;18.40;3.78;;;;;;;11.04;74.32;98911.41;8310307;28;20060;-55
2023/12/31 17:09:52;;;;;;;19.23;2.10;;;;;;;10.90;75.54;98920.34;8345881;28;20415;-55
2023/12/31 17:13:53;;;;;;;14.35;1.92;;;;;;;10.92;75.61;98923.69;8356925;28;20037;-54
2023/12/31 17:17:54;;;;;;;15.63;2.38;;;;;;;11.03;75.12;98917.84;8356072;28;20041;-54
2023/12/31 17:21:54;;;;;;;16.25;2.10;;;;;;;10.90;75.08;98944.66;8336465;28;20044;-57
2023/12/31 17:25:55;;;;;;;11.45;1.85;;;;;;;10.91;74.71;98949.03;8341198;28;20132;-55
2023/12/31 17:29:56;;;;;;;11.82;1.80;;;;;;;10.84;75.51;98948.09;8342259;28;20029;-56
2023/12/31 17:33:57;;;;;;;13.70;2.10;;;;;;;10.91;74.71;98940.94;8348071;28;20044;-55
2023/12/31 17:37:58;;;;;;;11.80;2.10;;;;;;;10.84;74.96;98945.38;8325409;28;20037;-57
2023/12/31 17:41:59;;;;;;;12.60;1.90;;;;;;;10.92;74.43;98948.00;8343094;28;20037;-56
2023/12/31 17:45:59;;;;;;;17.17;2.55;;;;;;;10.93;74.39;98963.22;8347610;28;20057;-55
2023/12/31 17:50:01;;;;;;;11.38;2.13;;;;;;;10.89;73.67;98966.47;8350636;28;20040;-54
2023/12/31 17:54:03;;;;;;;12.35;1.95;;;;;;;10.82;73.98;98985.25;8346398;28;20046;-56
2023/12/31 17:58:03;;;;;;;16.02;2.78;;;;;;;10.78;74.05;98983.94;8346925;28;20121;-56
2023/12/31 18:02:04;;;;;;;9.88;2.53;;;;;;;10.70;74.24;98981.28;8349977;28;20037;-55
2023/12/31 18:06:05;;;;;;;11.98;3.22;;;;;;;10.64;74.50;98990.09;8349334;28;20037;-56
2023/12/31 18:10:06;;;;;;;14.75;3.58;;;;;;;10.60;75.12;98991.50;8346654;28;20076;-56
2023/12/31 18:14:06;;;;;;;14.82;2.72;;;;;;;10.40;75.81;98990.25;8346815;28;20137;-56
2023/12/31 18:18:07;;;;;;;10.98;2.53;;;;;;;10.33;76.60;98994.66;8323235;28;20034;-55
2023/12/31 18:22:07;;;;;;;18.55;3.22;;;;;;;10.42;76.18;98999.03;8336914;28;20135;-56
2023/12/31 18:26:08;;;;;;;12.80;2.67;;;;;;;10.43;76.13;98999.88;8329301;28;20123;-55
2023/12/31 18:30:09;;;;;;;10.40;1.83;;;;;;;10.46;76.54;98989.53;8339789;28;20068;-55
2023/12/31 18:34:12;;;;;;;11.43;2.38;;;;;;;10.66;76.35;99009.69;8341241;28;20040;-56
2023/12/31 18:38:18;;;;;;;6.60;1.77;;;;;;;10.48;77.65;99006.41;8347070;28;20071;-55
2023/12/31 18:42:18;;;;;;;7.32;1.67;;;;;;;10.59;77.61;98988.97;8347084;28;20033;-55
2023/12/31 18:46:20;;;;;;;14.13;2.50;;;;;;;10.53;78.14;98990.53;8340057;28;20036;-56
2023/12/31 18:50:21;;;;;;;7.93;1.88;;;;;;;10.52;78.07;99004.22;8324065;28;20060;-55
2023/12/31 18:54:21;;;;;;;10.00;1.88;;;;;;;10.36;79.07;99026.72;8323220;28;20539;-55
2023/12/31 18:58:22;;;;;;;11.18;1.90;;;;;;;10.50;78.55;99014.34;8317037;28;20107;-56